sensor_id;sensor_type;location;lat;lon;timestamp;temperature;humidity
15262;DHT22;7733;51.554;13.590;2023-04-25T00:01:40;7.90;99.90
15262;DHT22;7733;51.554;13.590;2023-04-25T00:04:07;7.90;99.90
15262;DHT22;7733;51.554;13.590;2023-04-25T00:06:34;8.00;99.90
15262;DHT22;7733;51.554;13.590;2023-04-25T00:09:02;8.00;99.90
15262;DHT22;7733;51.554;13.590;2023-04-25T00:11:29;8.00;99.90
15262;DHT22;7733;51.554;13.590;2023-04-25T00:13:56;7.90;99.90
15262;DHT22;7733;51.554;13.590;2023-04-25T00:16:22;8.00;99.90
15262;DHT22;7733;51.554;13.590;2023-04-25T00:18:49;8.00;99.90
15262;DHT22;7733;51.554;13.590;2023-04-25T00:21:19;7.90;99.90
15262;DHT22;7733;51.554;13.590;2023-04-25T00:23:46;7.90;99.90
15262;DHT22;7733;51.554;13.590;2023-04-25T00:26:12;8.00;99.90
15262;DHT22;7733;51.554;13.590;2023-04-25T00:28:39;8.00;99.90
15262;DHT22;7733;51.554;13.590;2023-04-25T00:31:06;8.00;99.90
15262;DHT22;7733;51.554;13.590;2023-04-25T00:33:32;8.00;99.90
15262;DHT22;7733;51.554;13.590;2023-04-25T00:35:57;8.10;99.90
15262;DHT22;7733;51.554;13.590;2023-04-25T00:38:23;8.20;99.90
15262;DHT22;7733;51.554;13.590;2023-04-25T00:40:49;8.20;99.90
15262;DHT22;7733;51.554;13.590;2023-04-25T00:43:15;8.40;99.90
15262;DHT22;7733;51.554;13.590;2023-04-25T00:45:43;8.40;99.90
15262;DHT22;7733;51.554;13.590;2023-04-25T00:48:08;8.30;99.90
15262;DHT22;7733;51.554;13.590;2023-04-25T00:50:35;8.30;99.90
15262;DHT22;7733;51.554;13.590;2023-04-25T00:53:02;8.20;99.90
15262;DHT22;7733;51.554;13.590;2023-04-25T00:55:29;8.30;99.90
15262;DHT22;7733;51.554;13.590;2023-04-25T00:57:57;8.20;99.90
15262;DHT22;7733;51.554;13.590;2023-04-25T01:00:23;8.10;99.90
15262;DHT22;7733;51.554;13.590;2023-04-25T01:02:49;8.10;99.90
15262;DHT22;7733;51.554;13.590;2023-04-25T01:05:15;8.00;99.90
15262;DHT22;7733;51.554;13.590;2023-04-25T01:07:41;7.80;99.90
15262;DHT22;7733;51.554;13.590;2023-04-25T01:10:07;7.80;99.90
15262;DHT22;7733;51.554;13.590;2023-04-25T01:12:34;7.80;99.90
15262;DHT22;7733;51.554;13.590;2023-04-25T01:15:00;7.80;99.90
15262;DHT22;7733;51.554;13.590;2023-04-25T01:17:26;7.80;99.90
15262;DHT22;7733;51.554;13.590;2023-04-25T01:19:52;7.70;99.90
15262;DHT22;7733;51.554;13.590;2023-04-25T01:22:19;7.80;99.90
15262;DHT22;7733;51.554;13.590;2023-04-25T01:24:45;7.80;99.90
15262;DHT22;7733;51.554;13.590;2023-04-25T01:27:11;7.90;99.90
15262;DHT22;7733;51.554;13.590;2023-04-25T01:29:37;7.90;99.90
15262;DHT22;7733;51.554;13.590;2023-04-25T01:32:04;8.00;99.90
15262;DHT22;7733;51.554;13.590;2023-04-25T01:34:30;8.00;99.90
15262;DHT22;7733;51.554;13.590;2023-04-25T01:36:56;8.00;99.90
15262;DHT22;7733;51.554;13.590;2023-04-25T01:39:24;8.10;99.90
15262;DHT22;7733;51.554;13.590;2023-04-25T01:41:50;8.10;99.90
15262;DHT22;7733;51.554;13.590;2023-04-25T01:44:16;8.00;99.90
15262;DHT22;7733;51.554;13.590;2023-04-25T01:46:42;8.00;99.90
15262;DHT22;7733;51.554;13.590;2023-04-25T01:49:08;8.00;99.90
15262;DHT22;7733;51.554;13.590;2023-04-25T01:51:33;7.90;99.90
15262;DHT22;7733;51.554;13.590;2023-04-25T01:54:00;8.00;99.90
15262;DHT22;7733;51.554;13.590;2023-04-25T01:56:30;8.00;99.90
15262;DHT22;7733;51.554;13.590;2023-04-25T01:58:57;7.90;99.90
15262;DHT22;7733;51.554;13.590;2023-04-25T02:01:23;7.90;99.90
15262;DHT22;7733;51.554;13.590;2023-04-25T02:03:49;7.80;99.90
15262;DHT22;7733;51.554;13.590;2023-04-25T02:06:15;7.80;99.90
15262;DHT22;7733;51.554;13.590;2023-04-25T02:08:40;7.80;99.90
15262;DHT22;7733;51.554;13.590;2023-04-25T02:11:06;7.80;99.90
15262;DHT22;7733;51.554;13.590;2023-04-25T02:13:32;7.80;99.90
15262;DHT22;7733;51.554;13.590;2023-04-25T02:15:57;7.80;99.90
15262;DHT22;7733;51.554;13.590;2023-04-25T02:18:23;7.80;99.90
15262;DHT22;7733;51.554;13.590;2023-04-25T02:20:49;7.80;99.90
15262;DHT22;7733;51.554;13.590;2023-04-25T02:23:15;7.70;99.90
15262;DHT22;7733;51.554;13.590;2023-04-25T02:25:41;7.70;99.90
15262;DHT22;7733;51.554;13.590;2023-04-25T02:28:07;7.60;99.90
15262;DHT22;7733;51.554;13.590;2023-04-25T02:30:32;7.50;99.90
15262;DHT22;7733;51.554;13.590;2023-04-25T02:32:58;7.50;99.90
15262;DHT22;7733;51.554;13.590;2023-04-25T02:35:24;7.60;99.90
15262;DHT22;7733;51.554;13.590;2023-04-25T02:37:50;7.50;99.90
15262;DHT22;7733;51.554;13.590;2023-04-25T02:40:16;7.40;99.90
15262;DHT22;7733;51.554;13.590;2023-04-25T02:42:41;7.50;99.90
15262;DHT22;7733;51.554;13.590;2023-04-25T02:45:08;7.70;99.90
15262;DHT22;7733;51.554;13.590;2023-04-25T02:47:34;7.60;99.90
15262;DHT22;7733;51.554;13.590;2023-04-25T02:49:59;7.70;99.90
15262;DHT22;7733;51.554;13.590;2023-04-25T02:52:25;7.70;99.90
15262;DHT22;7733;51.554;13.590;2023-04-25T02:54:51;7.70;99.90
15262;DHT22;7733;51.554;13.590;2023-04-25T02:57:16;7.60;99.90
15262;DHT22;7733;51.554;13.590;2023-04-25T02:59:42;7.70;99.90
15262;DHT22;7733;51.554;13.590;2023-04-25T03:02:08;7.70;99.90
15262;DHT22;7733;51.554;13.590;2023-04-25T03:04:35;7.70;99.90
15262;DHT22;7733;51.554;13.590;2023-04-25T03:07:01;7.70;99.90
15262;DHT22;7733;51.554;13.590;2023-04-25T03:09:26;7.70;99.90
15262;DHT22;7733;51.554;13.590;2023-04-25T03:11:52;7.60;99.90
15262;DHT22;7733;51.554;13.590;2023-04-25T03:14:18;7.60;99.90
15262;DHT22;7733;51.554;13.590;2023-04-25T03:16:44;7.60;99.90
15262;DHT22;7733;51.554;13.590;2023-04-25T03:19:10;7.60;99.90
15262;DHT22;7733;51.554;13.590;2023-04-25T03:21:36;7.50;99.90
15262;DHT22;7733;51.554;13.590;2023-04-25T03:24:03;7.50;99.90
15262;DHT22;7733;51.554;13.590;2023-04-25T03:26:30;7.40;99.90
15262;DHT22;7733;51.554;13.590;2023-04-25T03:28:56;7.30;99.90
15262;DHT22;7733;51.554;13.590;2023-04-25T03:31:21;7.30;99.90
15262;DHT22;7733;51.554;13.590;2023-04-25T03:33:47;7.30;99.90
15262;DHT22;7733;51.554;13.590;2023-04-25T03:36:13;7.30;99.90
15262;DHT22;7733;51.554;13.590;2023-04-25T03:38:39;7.30;99.90
15262;DHT22;7733;51.554;13.590;2023-04-25T03:41:06;7.20;99.90
15262;DHT22;7733;51.554;13.590;2023-04-25T03:43:32;7.10;99.90
15262;DHT22;7733;51.554;13.590;2023-04-25T03:45:58;7.10;99.90
15262;DHT22;7733;51.554;13.590;2023-04-25T03:48:26;7.10;99.90
15262;DHT22;7733;51.554;13.590;2023-04-25T03:50:52;6.90;99.90
15262;DHT22;7733;51.554;13.590;2023-04-25T03:53:19;6.90;99.90
15262;DHT22;7733;51.554;13.590;2023-04-25T03:55:45;6.80;99.90
15262;DHT22;7733;51.554;13.590;2023-04-25T03:58:10;6.90;99.90
15262;DHT22;7733;51.554;13.590;2023-04-25T04:00:36;6.80;99.90
15262;DHT22;7733;51.554;13.590;2023-04-25T04:03:02;6.80;99.90
15262;DHT22;7733;51.554;13.590;2023-04-25T04:05:28;6.70;99.90
15262;DHT22;7733;51.554;13.590;2023-04-25T04:07:54;6.70;99.90
15262;DHT22;7733;51.554;13.590;2023-04-25T04:10:20;6.80;99.90
15262;DHT22;7733;51.554;13.590;2023-04-25T04:12:46;6.80;99.90
15262;DHT22;7733;51.554;13.590;2023-04-25T04:15:12;6.80;99.90
15262;DHT22;7733;51.554;13.590;2023-04-25T04:17:38;6.70;99.90
15262;DHT22;7733;51.554;13.590;2023-04-25T04:20:04;6.70;99.90
15262;DHT22;7733;51.554;13.590;2023-04-25T04:22:31;6.70;99.90
15262;DHT22;7733;51.554;13.590;2023-04-25T04:24:57;6.80;99.90
15262;DHT22;7733;51.554;13.590;2023-04-25T04:27:23;6.80;99.90
15262;DHT22;7733;51.554;13.590;2023-04-25T04:29:49;6.90;99.90
15262;DHT22;7733;51.554;13.590;2023-04-25T04:32:16;6.80;99.90
15262;DHT22;7733;51.554;13.590;2023-04-25T04:34:43;6.70;99.90
15262;DHT22;7733;51.554;13.590;2023-04-25T04:37:09;6.60;99.90
15262;DHT22;7733;51.554;13.590;2023-04-25T04:39:36;6.80;99.90
15262;DHT22;7733;51.554;13.590;2023-04-25T04:42:02;6.60;99.90
15262;DHT22;7733;51.554;13.590;2023-04-25T04:44:29;6.70;99.90
15262;DHT22;7733;51.554;13.590;2023-04-25T04:46:58;6.70;99.90
15262;DHT22;7733;51.554;13.590;2023-04-25T04:49:24;6.80;99.90
15262;DHT22;7733;51.554;13.590;2023-04-25T04:51:50;6.90;99.90
15262;DHT22;7733;51.554;13.590;2023-04-25T04:54:16;6.90;99.90
15262;DHT22;7733;51.554;13.590;2023-04-25T04:56:42;6.90;99.90
15262;DHT22;7733;51.554;13.590;2023-04-25T04:59:08;6.80;99.90
15262;DHT22;7733;51.554;13.590;2023-04-25T05:01:34;6.90;99.90
15262;DHT22;7733;51.554;13.590;2023-04-25T05:04:01;6.80;99.90
15262;DHT22;7733;51.554;13.590;2023-04-25T05:06:28;6.90;99.90
15262;DHT22;7733;51.554;13.590;2023-04-25T05:08:57;6.90;99.90
15262;DHT22;7733;51.554;13.590;2023-04-25T05:11:25;7.00;99.90
15262;DHT22;7733;51.554;13.590;2023-04-25T05:13:54;7.00;99.90
15262;DHT22;7733;51.554;13.590;2023-04-25T05:16:20;7.10;99.90
15262;DHT22;7733;51.554;13.590;2023-04-25T05:18:46;7.10;99.90
15262;DHT22;7733;51.554;13.590;2023-04-25T05:21:12;7.10;99.90
15262;DHT22;7733;51.554;13.590;2023-04-25T05:23:38;7.20;99.90
15262;DHT22;7733;51.554;13.590;2023-04-25T05:26:04;7.20;99.90
15262;DHT22;7733;51.554;13.590;2023-04-25T05:28:30;7.30;99.90
15262;DHT22;7733;51.554;13.590;2023-04-25T05:30:56;7.30;99.90
15262;DHT22;7733;51.554;13.590;2023-04-25T05:33:22;7.30;99.90
15262;DHT22;7733;51.554;13.590;2023-04-25T05:35:48;7.30;99.90
15262;DHT22;7733;51.554;13.590;2023-04-25T05:38:15;7.40;99.90
15262;DHT22;7733;51.554;13.590;2023-04-25T05:40:41;7.50;99.90
15262;DHT22;7733;51.554;13.590;2023-04-25T05:43:06;7.50;99.90
15262;DHT22;7733;51.554;13.590;2023-04-25T05:45:32;7.50;99.90
15262;DHT22;7733;51.554;13.590;2023-04-25T05:47:58;7.60;99.90
15262;DHT22;7733;51.554;13.590;2023-04-25T05:50:24;7.60;99.90
15262;DHT22;7733;51.554;13.590;2023-04-25T05:52:50;7.70;99.90
15262;DHT22;7733;51.554;13.590;2023-04-25T05:55:16;7.80;99.90
15262;DHT22;7733;51.554;13.590;2023-04-25T05:57:41;7.80;99.90
15262;DHT22;7733;51.554;13.590;2023-04-25T06:00:11;7.80;99.90
15262;DHT22;7733;51.554;13.590;2023-04-25T06:02:38;7.90;99.90
15262;DHT22;7733;51.554;13.590;2023-04-25T06:05:04;8.00;99.90
15262;DHT22;7733;51.554;13.590;2023-04-25T06:07:30;8.00;99.90
15262;DHT22;7733;51.554;13.590;2023-04-25T06:09:56;8.20;99.90
15262;DHT22;7733;51.554;13.590;2023-04-25T06:12:22;8.10;99.90
15262;DHT22;7733;51.554;13.590;2023-04-25T06:14:48;8.10;99.90
15262;DHT22;7733;51.554;13.590;2023-04-25T06:17:14;8.10;99.90
15262;DHT22;7733;51.554;13.590;2023-04-25T06:19:39;8.20;99.90
15262;DHT22;7733;51.554;13.590;2023-04-25T06:22:06;8.40;99.90
15262;DHT22;7733;51.554;13.590;2023-04-25T06:24:33;8.50;99.90
15262;DHT22;7733;51.554;13.590;2023-04-25T06:26:59;8.50;99.90
15262;DHT22;7733;51.554;13.590;2023-04-25T06:29:25;8.60;99.90
15262;DHT22;7733;51.554;13.590;2023-04-25T06:31:52;8.50;99.90
15262;DHT22;7733;51.554;13.590;2023-04-25T06:34:17;8.50;99.90
15262;DHT22;7733;51.554;13.590;2023-04-25T06:36:43;8.60;99.90
15262;DHT22;7733;51.554;13.590;2023-04-25T06:39:10;8.80;99.90
15262;DHT22;7733;51.554;13.590;2023-04-25T06:41:36;8.70;99.90
15262;DHT22;7733;51.554;13.590;2023-04-25T06:44:02;8.80;99.90
15262;DHT22;7733;51.554;13.590;2023-04-25T06:46:27;8.80;99.90
15262;DHT22;7733;51.554;13.590;2023-04-25T06:48:53;8.90;99.90
15262;DHT22;7733;51.554;13.590;2023-04-25T06:51:19;8.80;99.90
15262;DHT22;7733;51.554;13.590;2023-04-25T06:53:45;8.70;99.90
15262;DHT22;7733;51.554;13.590;2023-04-25T06:56:10;8.90;99.90
15262;DHT22;7733;51.554;13.590;2023-04-25T06:58:36;9.00;99.90
15262;DHT22;7733;51.554;13.590;2023-04-25T07:01:02;9.10;99.90
15262;DHT22;7733;51.554;13.590;2023-04-25T07:03:28;9.20;99.90
15262;DHT22;7733;51.554;13.590;2023-04-25T07:05:54;9.20;99.90
15262;DHT22;7733;51.554;13.590;2023-04-25T07:08:20;9.20;99.90
15262;DHT22;7733;51.554;13.590;2023-04-25T07:10:46;9.20;99.90
15262;DHT22;7733;51.554;13.590;2023-04-25T07:13:12;9.20;99.90
15262;DHT22;7733;51.554;13.590;2023-04-25T07:15:38;9.10;99.90
15262;DHT22;7733;51.554;13.590;2023-04-25T07:18:04;9.30;99.90
15262;DHT22;7733;51.554;13.590;2023-04-25T07:20:29;9.50;99.90
15262;DHT22;7733;51.554;13.590;2023-04-25T07:22:56;9.60;99.90
15262;DHT22;7733;51.554;13.590;2023-04-25T07:25:22;9.70;99.90
15262;DHT22;7733;51.554;13.590;2023-04-25T07:27:48;9.50;99.90
15262;DHT22;7733;51.554;13.590;2023-04-25T07:30:15;9.60;99.90
15262;DHT22;7733;51.554;13.590;2023-04-25T07:32:40;9.60;99.90
15262;DHT22;7733;51.554;13.590;2023-04-25T07:35:06;9.70;99.90
15262;DHT22;7733;51.554;13.590;2023-04-25T07:37:35;9.80;99.90
15262;DHT22;7733;51.554;13.590;2023-04-25T07:40:02;9.90;99.90
15262;DHT22;7733;51.554;13.590;2023-04-25T07:42:32;9.80;99.90
15262;DHT22;7733;51.554;13.590;2023-04-25T07:44:58;9.80;99.90
15262;DHT22;7733;51.554;13.590;2023-04-25T07:47:23;9.80;99.90
15262;DHT22;7733;51.554;13.590;2023-04-25T07:49:49;9.80;99.90
15262;DHT22;7733;51.554;13.590;2023-04-25T07:52:15;9.90;99.90
15262;DHT22;7733;51.554;13.590;2023-04-25T07:54:41;10.00;99.90
15262;DHT22;7733;51.554;13.590;2023-04-25T07:57:07;10.00;99.90
15262;DHT22;7733;51.554;13.590;2023-04-25T07:59:32;9.80;99.90
15262;DHT22;7733;51.554;13.590;2023-04-25T08:01:58;9.80;99.90
15262;DHT22;7733;51.554;13.590;2023-04-25T08:04:24;9.70;99.90
15262;DHT22;7733;51.554;13.590;2023-04-25T08:06:53;9.80;99.90
15262;DHT22;7733;51.554;13.590;2023-04-25T08:09:19;9.80;99.90
15262;DHT22;7733;51.554;13.590;2023-04-25T08:11:46;9.70;99.90
15262;DHT22;7733;51.554;13.590;2023-04-25T08:14:13;9.90;99.90
15262;DHT22;7733;51.554;13.590;2023-04-25T08:16:39;10.00;99.90
15262;DHT22;7733;51.554;13.590;2023-04-25T08:19:05;10.10;99.90
15262;DHT22;7733;51.554;13.590;2023-04-25T08:21:31;10.00;99.90
15262;DHT22;7733;51.554;13.590;2023-04-25T08:23:57;10.00;99.90
15262;DHT22;7733;51.554;13.590;2023-04-25T08:26:24;10.00;99.90
15262;DHT22;7733;51.554;13.590;2023-04-25T08:28:50;9.90;99.90
15262;DHT22;7733;51.554;13.590;2023-04-25T08:31:16;9.90;99.90
15262;DHT22;7733;51.554;13.590;2023-04-25T08:33:43;9.80;99.90
15262;DHT22;7733;51.554;13.590;2023-04-25T08:36:10;9.90;99.90
15262;DHT22;7733;51.554;13.590;2023-04-25T08:38:36;9.80;99.90
15262;DHT22;7733;51.554;13.590;2023-04-25T08:41:02;9.90;99.90
15262;DHT22;7733;51.554;13.590;2023-04-25T08:43:29;10.00;99.90
15262;DHT22;7733;51.554;13.590;2023-04-25T08:46:00;9.90;99.90
15262;DHT22;7733;51.554;13.590;2023-04-25T08:48:32;9.90;99.90
15262;DHT22;7733;51.554;13.590;2023-04-25T08:51:01;10.00;99.90
15262;DHT22;7733;51.554;13.590;2023-04-25T08:53:32;9.90;99.90
15262;DHT22;7733;51.554;13.590;2023-04-25T08:56:00;9.70;99.90
15262;DHT22;7733;51.554;13.590;2023-04-25T08:58:32;9.70;99.90
15262;DHT22;7733;51.554;13.590;2023-04-25T09:00:58;9.80;99.90
15262;DHT22;7733;51.554;13.590;2023-04-25T09:03:25;9.80;99.90
15262;DHT22;7733;51.554;13.590;2023-04-25T09:05:51;9.80;99.90
15262;DHT22;7733;51.554;13.590;2023-04-25T09:08:18;9.70;99.90
15262;DHT22;7733;51.554;13.590;2023-04-25T09:10:43;9.70;99.90
15262;DHT22;7733;51.554;13.590;2023-04-25T09:13:12;9.70;99.90
15262;DHT22;7733;51.554;13.590;2023-04-25T09:15:51;9.80;99.90
15262;DHT22;7733;51.554;13.590;2023-04-25T09:20:52;9.80;99.90
15262;DHT22;7733;51.554;13.590;2023-04-25T09:23:19;9.80;99.90
15262;DHT22;7733;51.554;13.590;2023-04-25T09:25:51;9.70;99.90
15262;DHT22;7733;51.554;13.590;2023-04-25T09:28:27;9.70;99.90
15262;DHT22;7733;51.554;13.590;2023-04-25T09:30:57;9.70;99.90
15262;DHT22;7733;51.554;13.590;2023-04-25T09:33:30;9.60;99.90
15262;DHT22;7733;51.554;13.590;2023-04-25T09:36:06;9.70;99.90
15262;DHT22;7733;51.554;13.590;2023-04-25T09:38:41;10.00;99.90
15262;DHT22;7733;51.554;13.590;2023-04-25T09:41:08;9.90;99.90
15262;DHT22;7733;51.554;13.590;2023-04-25T09:43:36;10.00;99.90
15262;DHT22;7733;51.554;13.590;2023-04-25T09:46:02;9.90;99.90
15262;DHT22;7733;51.554;13.590;2023-04-25T09:48:33;9.90;99.90
15262;DHT22;7733;51.554;13.590;2023-04-25T09:51:12;10.10;99.90
15262;DHT22;7733;51.554;13.590;2023-04-25T09:53:40;10.10;99.90
15262;DHT22;7733;51.554;13.590;2023-04-25T09:56:09;10.00;99.90
15262;DHT22;7733;51.554;13.590;2023-04-25T09:58:38;9.80;99.90
15262;DHT22;7733;51.554;13.590;2023-04-25T10:01:07;9.90;99.90
15262;DHT22;7733;51.554;13.590;2023-04-25T10:03:38;9.70;99.90
15262;DHT22;7733;51.554;13.590;2023-04-25T10:06:12;9.70;99.90
15262;DHT22;7733;51.554;13.590;2023-04-25T10:08:39;9.50;99.90
15262;DHT22;7733;51.554;13.590;2023-04-25T10:11:08;9.40;99.90
15262;DHT22;7733;51.554;13.590;2023-04-25T10:13:35;9.30;99.90
15262;DHT22;7733;51.554;13.590;2023-04-25T10:16:03;9.50;99.90
15262;DHT22;7733;51.554;13.590;2023-04-25T10:18:30;9.30;99.90
15262;DHT22;7733;51.554;13.590;2023-04-25T10:21:00;9.30;99.90
15262;DHT22;7733;51.554;13.590;2023-04-25T10:23:27;9.20;99.90
15262;DHT22;7733;51.554;13.590;2023-04-25T10:25:55;9.50;99.90
15262;DHT22;7733;51.554;13.590;2023-04-25T10:28:22;9.40;99.90
15262;DHT22;7733;51.554;13.590;2023-04-25T10:31:06;9.50;99.90
15262;DHT22;7733;51.554;13.590;2023-04-25T10:33:40;9.50;99.90
15262;DHT22;7733;51.554;13.590;2023-04-25T10:36:21;9.80;99.90
15262;DHT22;7733;51.554;13.590;2023-04-25T10:38:49;9.80;99.90
15262;DHT22;7733;51.554;13.590;2023-04-25T10:41:18;9.70;99.90
15262;DHT22;7733;51.554;13.590;2023-04-25T10:43:46;9.90;99.90
15262;DHT22;7733;51.554;13.590;2023-04-25T10:46:17;10.00;99.90
15262;DHT22;7733;51.554;13.590;2023-04-25T10:48:54;10.00;99.90
15262;DHT22;7733;51.554;13.590;2023-04-25T10:54:04;9.70;99.90
15262;DHT22;7733;51.554;13.590;2023-04-25T10:56:38;9.70;99.90
15262;DHT22;7733;51.554;13.590;2023-04-25T10:59:18;9.60;99.90
15262;DHT22;7733;51.554;13.590;2023-04-25T11:01:51;9.70;99.90
15262;DHT22;7733;51.554;13.590;2023-04-25T11:04:31;9.70;99.90
15262;DHT22;7733;51.554;13.590;2023-04-25T11:07:10;9.80;99.90
15262;DHT22;7733;51.554;13.590;2023-04-25T11:09:45;9.80;99.90
15262;DHT22;7733;51.554;13.590;2023-04-25T11:12:11;9.60;99.90
15262;DHT22;7733;51.554;13.590;2023-04-25T11:14:38;9.60;99.90
15262;DHT22;7733;51.554;13.590;2023-04-25T11:17:04;9.70;99.90
15262;DHT22;7733;51.554;13.590;2023-04-25T11:19:31;9.70;99.90
15262;DHT22;7733;51.554;13.590;2023-04-25T11:21:58;9.90;99.90
15262;DHT22;7733;51.554;13.590;2023-04-25T11:24:27;10.10;99.90
15262;DHT22;7733;51.554;13.590;2023-04-25T11:26:58;10.10;99.90
15262;DHT22;7733;51.554;13.590;2023-04-25T11:29:28;10.10;99.90
15262;DHT22;7733;51.554;13.590;2023-04-25T11:31:55;10.40;99.90
15262;DHT22;7733;51.554;13.590;2023-04-25T11:34:26;10.60;99.90
15262;DHT22;7733;51.554;13.590;2023-04-25T11:36:56;10.60;99.90
15262;DHT22;7733;51.554;13.590;2023-04-25T11:39:24;10.60;99.90
15262;DHT22;7733;51.554;13.590;2023-04-25T11:41:50;10.70;99.90
15262;DHT22;7733;51.554;13.590;2023-04-25T11:44:17;10.50;99.90
15262;DHT22;7733;51.554;13.590;2023-04-25T11:46:44;10.60;99.90
15262;DHT22;7733;51.554;13.590;2023-04-25T11:49:10;10.80;99.90
15262;DHT22;7733;51.554;13.590;2023-04-25T11:51:40;10.70;99.90
15262;DHT22;7733;51.554;13.590;2023-04-25T11:54:07;10.90;99.90
15262;DHT22;7733;51.554;13.590;2023-04-25T11:56:33;10.90;99.90
15262;DHT22;7733;51.554;13.590;2023-04-25T11:59:08;10.70;99.90
15262;DHT22;7733;51.554;13.590;2023-04-25T12:01:36;10.50;99.90
15262;DHT22;7733;51.554;13.590;2023-04-25T12:04:16;10.40;99.90
15262;DHT22;7733;51.554;13.590;2023-04-25T12:06:47;10.40;99.90
15262;DHT22;7733;51.554;13.590;2023-04-25T12:09:20;10.40;99.90
15262;DHT22;7733;51.554;13.590;2023-04-25T12:11:57;10.40;99.90
15262;DHT22;7733;51.554;13.590;2023-04-25T12:14:26;10.40;99.90
15262;DHT22;7733;51.554;13.590;2023-04-25T12:16:58;10.30;99.90
15262;DHT22;7733;51.554;13.590;2023-04-25T12:19:26;10.20;99.90
15262;DHT22;7733;51.554;13.590;2023-04-25T12:22:00;10.20;99.90
15262;DHT22;7733;51.554;13.590;2023-04-25T12:24:28;10.30;99.90
15262;DHT22;7733;51.554;13.590;2023-04-25T12:27:04;10.10;99.90
15262;DHT22;7733;51.554;13.590;2023-04-25T12:29:33;10.10;99.90
15262;DHT22;7733;51.554;13.590;2023-04-25T12:31:59;10.10;99.90
15262;DHT22;7733;51.554;13.590;2023-04-25T12:34:27;10.10;99.90
15262;DHT22;7733;51.554;13.590;2023-04-25T12:36:53;10.10;99.90
15262;DHT22;7733;51.554;13.590;2023-04-25T12:39:23;10.20;99.90
15262;DHT22;7733;51.554;13.590;2023-04-25T12:41:52;10.30;99.90
15262;DHT22;7733;51.554;13.590;2023-04-25T12:44:21;10.30;99.90
15262;DHT22;7733;51.554;13.590;2023-04-25T12:46:48;10.40;99.90
15262;DHT22;7733;51.554;13.590;2023-04-25T12:49:13;10.30;99.90
15262;DHT22;7733;51.554;13.590;2023-04-25T12:51:40;10.80;99.90
15262;DHT22;7733;51.554;13.590;2023-04-25T12:54:07;11.00;99.90
15262;DHT22;7733;51.554;13.590;2023-04-25T12:56:34;10.90;99.90
15262;DHT22;7733;51.554;13.590;2023-04-25T12:59:00;10.70;99.80
15262;DHT22;7733;51.554;13.590;2023-04-25T13:01:28;10.50;99.90
15262;DHT22;7733;51.554;13.590;2023-04-25T13:03:54;10.40;99.90
15262;DHT22;7733;51.554;13.590;2023-04-25T13:06:21;10.40;99.90
15262;DHT22;7733;51.554;13.590;2023-04-25T13:08:47;10.40;99.90
15262;DHT22;7733;51.554;13.590;2023-04-25T13:11:14;10.50;99.90
15262;DHT22;7733;51.554;13.590;2023-04-25T13:13:43;10.50;99.90
15262;DHT22;7733;51.554;13.590;2023-04-25T13:16:09;10.60;99.20
15262;DHT22;7733;51.554;13.590;2023-04-25T13:18:35;10.50;98.60
15262;DHT22;7733;51.554;13.590;2023-04-25T13:21:01;10.60;98.50
15262;DHT22;7733;51.554;13.590;2023-04-25T13:23:28;10.70;98.50
15262;DHT22;7733;51.554;13.590;2023-04-25T13:25:55;10.80;98.60
15262;DHT22;7733;51.554;13.590;2023-04-25T13:28:23;10.80;97.20
15262;DHT22;7733;51.554;13.590;2023-04-25T13:30:50;11.10;98.00
15262;DHT22;7733;51.554;13.590;2023-04-25T13:33:17;11.00;96.50
15262;DHT22;7733;51.554;13.590;2023-04-25T13:35:44;10.90;97.10
15262;DHT22;7733;51.554;13.590;2023-04-25T13:38:12;10.70;96.30
15262;DHT22;7733;51.554;13.590;2023-04-25T13:40:39;10.70;96.50
15262;DHT22;7733;51.554;13.590;2023-04-25T13:43:05;10.60;96.60
15262;DHT22;7733;51.554;13.590;2023-04-25T13:45:32;10.60;96.40
15262;DHT22;7733;51.554;13.590;2023-04-25T13:47:57;10.60;96.50
15262;DHT22;7733;51.554;13.590;2023-04-25T13:50:23;10.70;97.30
15262;DHT22;7733;51.554;13.590;2023-04-25T13:52:49;10.90;97.40
15262;DHT22;7733;51.554;13.590;2023-04-25T13:55:15;11.00;96.90
15262;DHT22;7733;51.554;13.590;2023-04-25T13:57:40;10.70;96.10
15262;DHT22;7733;51.554;13.590;2023-04-25T14:00:07;10.70;96.80
15262;DHT22;7733;51.554;13.590;2023-04-25T14:02:37;10.70;96.10
15262;DHT22;7733;51.554;13.590;2023-04-25T14:05:04;10.70;95.60
15262;DHT22;7733;51.554;13.590;2023-04-25T14:07:31;10.90;95.90
15262;DHT22;7733;51.554;13.590;2023-04-25T14:09:57;11.20;95.20
15262;DHT22;7733;51.554;13.590;2023-04-25T14:12:23;11.60;95.80
15262;DHT22;7733;51.554;13.590;2023-04-25T14:14:50;11.30;94.40
15262;DHT22;7733;51.554;13.590;2023-04-25T14:17:15;11.00;95.30
15262;DHT22;7733;51.554;13.590;2023-04-25T14:19:41;10.90;94.20
15262;DHT22;7733;51.554;13.590;2023-04-25T14:22:11;10.90;93.50
15262;DHT22;7733;51.554;13.590;2023-04-25T14:24:37;10.80;91.80
15262;DHT22;7733;51.554;13.590;2023-04-25T14:27:03;10.60;90.90
15262;DHT22;7733;51.554;13.590;2023-04-25T14:29:29;10.50;91.00
15262;DHT22;7733;51.554;13.590;2023-04-25T14:31:55;10.60;91.10
15262;DHT22;7733;51.554;13.590;2023-04-25T14:34:23;10.60;91.20
15262;DHT22;7733;51.554;13.590;2023-04-25T14:36:49;10.60;91.30
15262;DHT22;7733;51.554;13.590;2023-04-25T14:39:15;10.70;91.80
15262;DHT22;7733;51.554;13.590;2023-04-25T14:41:41;10.70;91.00
15262;DHT22;7733;51.554;13.590;2023-04-25T14:44:07;10.60;90.90
15262;DHT22;7733;51.554;13.590;2023-04-25T14:46:33;11.00;91.50
15262;DHT22;7733;51.554;13.590;2023-04-25T14:48:59;11.30;91.70
15262;DHT22;7733;51.554;13.590;2023-04-25T14:51:26;11.10;90.60
15262;DHT22;7733;51.554;13.590;2023-04-25T14:53:52;10.80;91.30
15262;DHT22;7733;51.554;13.590;2023-04-25T14:56:18;10.80;91.20
15262;DHT22;7733;51.554;13.590;2023-04-25T14:58:44;10.60;91.30
15262;DHT22;7733;51.554;13.590;2023-04-25T15:01:11;10.70;90.50
15262;DHT22;7733;51.554;13.590;2023-04-25T15:03:38;10.60;89.70
15262;DHT22;7733;51.554;13.590;2023-04-25T15:06:05;10.60;88.70
15262;DHT22;7733;51.554;13.590;2023-04-25T15:08:31;10.80;89.70
15262;DHT22;7733;51.554;13.590;2023-04-25T15:10:58;10.70;88.10
15262;DHT22;7733;51.554;13.590;2023-04-25T15:13:25;10.70;88.20
15262;DHT22;7733;51.554;13.590;2023-04-25T15:15:51;10.70;87.50
15262;DHT22;7733;51.554;13.590;2023-04-25T15:18:20;10.70;89.00
15262;DHT22;7733;51.554;13.590;2023-04-25T15:20:51;10.80;89.60
15262;DHT22;7733;51.554;13.590;2023-04-25T15:23:18;10.90;87.50
15262;DHT22;7733;51.554;13.590;2023-04-25T15:25:45;11.00;88.50
15262;DHT22;7733;51.554;13.590;2023-04-25T15:28:11;10.70;88.00
15262;DHT22;7733;51.554;13.590;2023-04-25T15:30:40;10.70;89.90
15262;DHT22;7733;51.554;13.590;2023-04-25T15:33:06;10.70;90.20
15262;DHT22;7733;51.554;13.590;2023-04-25T15:35:31;10.60;88.30
15262;DHT22;7733;51.554;13.590;2023-04-25T15:37:57;10.60;90.00
15262;DHT22;7733;51.554;13.590;2023-04-25T15:40:23;10.60;90.20
15262;DHT22;7733;51.554;13.590;2023-04-25T15:42:50;10.40;89.20
15262;DHT22;7733;51.554;13.590;2023-04-25T15:45:18;10.50;90.50